sensor_id;sensor_type;location;lat;lon;timestamp;P1;durP1;ratioP1;P2;durP2;ratioP2
8584;SDS011;7180;52.742;11.420;2023-04-03T00:02:22;8.80;;;8.23;;
8584;SDS011;7180;52.742;11.420;2023-04-03T00:04:50;9.45;;;8.88;;
8584;SDS011;7180;52.742;11.420;2023-04-03T00:07:16;9.23;;;8.53;;
8584;SDS011;7180;52.742;11.420;2023-04-03T00:09:41;9.40;;;8.60;;
8584;SDS011;7180;52.742;11.420;2023-04-03T00:12:06;9.63;;;8.93;;
8584;SDS011;7180;52.742;11.420;2023-04-03T00:14:31;9.20;;;8.40;;
8584;SDS011;7180;52.742;11.420;2023-04-03T00:16:56;9.97;;;9.17;;
8584;SDS011;7180;52.742;11.420;2023-04-03T00:19:22;9.33;;;8.63;;
8584;SDS011;7180;52.742;11.420;2023-04-03T00:21:47;9.43;;;8.73;;
8584;SDS011;7180;52.742;11.420;2023-04-03T00:24:14;9.13;;;8.50;;
8584;SDS011;7180;52.742;11.420;2023-04-03T00:26:39;9.27;;;8.67;;
8584;SDS011;7180;52.742;11.420;2023-04-03T00:29:05;9.60;;;9.00;;
8584;SDS011;7180;52.742;11.420;2023-04-03T00:31:30;9.60;;;8.90;;
8584;SDS011;7180;52.742;11.420;2023-04-03T00:33:55;9.73;;;9.10;;
8584;SDS011;7180;52.742;11.420;2023-04-03T00:36:20;9.80;;;9.10;;
8584;SDS011;7180;52.742;11.420;2023-04-03T00:38:45;10.20;;;9.23;;
8584;SDS011;7180;52.742;11.420;2023-04-03T00:41:11;10.05;;;9.35;;
8584;SDS011;7180;52.742;11.420;2023-04-03T00:43:36;9.33;;;8.67;;
8584;SDS011;7180;52.742;11.420;2023-04-03T00:46:01;9.80;;;9.03;;
8584;SDS011;7180;52.742;11.420;2023-04-03T00:50:52;9.57;;;8.90;;
8584;SDS011;7180;52.742;11.420;2023-04-03T00:53:18;9.80;;;9.20;;
8584;SDS011;7180;52.742;11.420;2023-04-03T00:55:45;9.80;;;9.23;;
8584;SDS011;7180;52.742;11.420;2023-04-03T00:58:11;9.00;;;8.40;;
8584;SDS011;7180;52.742;11.420;2023-04-03T01:00:38;9.43;;;8.70;;
8584;SDS011;7180;52.742;11.420;2023-04-03T01:03:05;9.83;;;9.13;;
8584;SDS011;7180;52.742;11.420;2023-04-03T01:05:30;9.50;;;8.90;;
8584;SDS011;7180;52.742;11.420;2023-04-03T01:07:55;10.00;;;9.10;;
8584;SDS011;7180;52.742;11.420;2023-04-03T01:10:21;9.47;;;8.97;;
8584;SDS011;7180;52.742;11.420;2023-04-03T01:12:48;9.43;;;8.83;;
8584;SDS011;7180;52.742;11.420;2023-04-03T01:15:14;9.20;;;8.60;;
8584;SDS011;7180;52.742;11.420;2023-04-03T01:25:30;9.00;;;8.50;;
8584;SDS011;7180;52.742;11.420;2023-04-03T01:27:55;9.40;;;8.80;;
8584;SDS011;7180;52.742;11.420;2023-04-03T01:30:21;9.32;;;8.40;;
8584;SDS011;7180;52.742;11.420;2023-04-03T01:32:48;9.97;;;9.10;;
8584;SDS011;7180;52.742;11.420;2023-04-03T01:35:13;10.23;;;9.33;;
8584;SDS011;7180;52.742;11.420;2023-04-03T01:37:38;9.70;;;8.90;;
8584;SDS011;7180;52.742;11.420;2023-04-03T01:40:04;9.37;;;8.57;;
8584;SDS011;7180;52.742;11.420;2023-04-03T01:42:30;9.73;;;9.03;;
8584;SDS011;7180;52.742;11.420;2023-04-03T01:44:55;9.00;;;8.40;;
8584;SDS011;7180;52.742;11.420;2023-04-03T01:47:21;9.70;;;8.98;;
8584;SDS011;7180;52.742;11.420;2023-04-03T01:49:46;9.60;;;9.00;;
8584;SDS011;7180;52.742;11.420;2023-04-03T01:52:11;9.93;;;9.10;;
8584;SDS011;7180;52.742;11.420;2023-04-03T01:54:36;9.50;;;8.87;;
8584;SDS011;7180;52.742;11.420;2023-04-03T01:57:01;8.95;;;8.43;;
8584;SDS011;7180;52.742;11.420;2023-04-03T01:59:27;10.13;;;9.23;;
8584;SDS011;7180;52.742;11.420;2023-04-03T02:01:53;9.53;;;8.90;;
8584;SDS011;7180;52.742;11.420;2023-04-03T02:04:18;8.90;;;8.40;;
8584;SDS011;7180;52.742;11.420;2023-04-03T02:06:43;9.57;;;8.80;;
8584;SDS011;7180;52.742;11.420;2023-04-03T02:09:08;8.67;;;8.10;;
8584;SDS011;7180;52.742;11.420;2023-04-03T02:11:33;9.18;;;8.63;;
8584;SDS011;7180;52.742;11.420;2023-04-03T02:13:58;9.40;;;8.67;;
8584;SDS011;7180;52.742;11.420;2023-04-03T02:16:23;9.57;;;8.90;;
8584;SDS011;7180;52.742;11.420;2023-04-03T02:18:49;9.93;;;9.17;;
8584;SDS011;7180;52.742;11.420;2023-04-03T02:21:14;9.57;;;8.93;;
8584;SDS011;7180;52.742;11.420;2023-04-03T02:23:40;9.60;;;8.80;;
8584;SDS011;7180;52.742;11.420;2023-04-03T02:26:06;8.83;;;8.33;;
8584;SDS011;7180;52.742;11.420;2023-04-03T02:28:32;9.37;;;8.47;;
8584;SDS011;7180;52.742;11.420;2023-04-03T02:30:57;8.90;;;8.33;;
8584;SDS011;7180;52.742;11.420;2023-04-03T02:33:22;9.07;;;8.55;;
8584;SDS011;7180;52.742;11.420;2023-04-03T02:35:51;8.73;;;8.10;;
8584;SDS011;7180;52.742;11.420;2023-04-03T02:38:18;9.43;;;8.83;;
8584;SDS011;7180;52.742;11.420;2023-04-03T02:40:43;9.10;;;8.50;;
8584;SDS011;7180;52.742;11.420;2023-04-03T02:43:08;9.10;;;8.50;;
8584;SDS011;7180;52.742;11.420;2023-04-03T02:45:33;9.23;;;8.73;;
8584;SDS011;7180;52.742;11.420;2023-04-03T02:47:58;9.30;;;8.57;;
8584;SDS011;7180;52.742;11.420;2023-04-03T02:50:23;9.50;;;8.60;;
8584;SDS011;7180;52.742;11.420;2023-04-03T02:52:49;9.63;;;8.43;;
8584;SDS011;7180;52.742;11.420;2023-04-03T02:55:14;8.63;;;8.03;;
8584;SDS011;7180;52.742;11.420;2023-04-03T02:57:40;9.47;;;8.77;;
8584;SDS011;7180;52.742;11.420;2023-04-03T03:00:06;8.90;;;8.40;;
8584;SDS011;7180;52.742;11.420;2023-04-03T03:02:31;9.83;;;9.23;;
8584;SDS011;7180;52.742;11.420;2023-04-03T03:04:56;10.20;;;9.40;;
8584;SDS011;7180;52.742;11.420;2023-04-03T03:07:21;9.67;;;9.07;;
8584;SDS011;7180;52.742;11.420;2023-04-03T03:09:47;9.60;;;8.90;;
8584;SDS011;7180;52.742;11.420;2023-04-03T03:12:12;9.57;;;8.77;;
8584;SDS011;7180;52.742;11.420;2023-04-03T03:14:37;9.43;;;8.82;;
8584;SDS011;7180;52.742;11.420;2023-04-03T03:17:02;9.43;;;8.73;;
8584;SDS011;7180;52.742;11.420;2023-04-03T03:19:27;9.47;;;8.80;;
8584;SDS011;7180;52.742;11.420;2023-04-03T03:21:52;10.02;;;9.35;;
8584;SDS011;7180;52.742;11.420;2023-04-03T03:24:18;9.63;;;8.82;;
8584;SDS011;7180;52.742;11.420;2023-04-03T03:26:43;10.40;;;9.30;;
8584;SDS011;7180;52.742;11.420;2023-04-03T03:29:08;10.20;;;9.50;;
8584;SDS011;7180;52.742;11.420;2023-04-03T03:31:33;10.20;;;9.33;;
8584;SDS011;7180;52.742;11.420;2023-04-03T03:33:59;9.60;;;9.00;;
8584;SDS011;7180;52.742;11.420;2023-04-03T03:36:25;10.00;;;9.30;;
8584;SDS011;7180;52.742;11.420;2023-04-03T03:38:50;9.80;;;9.10;;
8584;SDS011;7180;52.742;11.420;2023-04-03T03:41:15;9.43;;;8.80;;
8584;SDS011;7180;52.742;11.420;2023-04-03T03:43:41;9.67;;;8.97;;
8584;SDS011;7180;52.742;11.420;2023-04-03T03:46:06;9.53;;;9.00;;
8584;SDS011;7180;52.742;11.420;2023-04-03T03:48:31;10.50;;;9.60;;
8584;SDS011;7180;52.742;11.420;2023-04-03T03:50:56;10.00;;;9.07;;
8584;SDS011;7180;52.742;11.420;2023-04-03T03:53:21;9.82;;;9.15;;
8584;SDS011;7180;52.742;11.420;2023-04-03T03:55:46;9.82;;;9.27;;
8584;SDS011;7180;52.742;11.420;2023-04-03T03:58:12;9.63;;;8.87;;
8584;SDS011;7180;52.742;11.420;2023-04-03T04:00:37;9.15;;;8.65;;
8584;SDS011;7180;52.742;11.420;2023-04-03T04:03:02;9.70;;;8.83;;
8584;SDS011;7180;52.742;11.420;2023-04-03T04:05:27;9.47;;;8.87;;
8584;SDS011;7180;52.742;11.420;2023-04-03T04:07:52;9.17;;;8.57;;
8584;SDS011;7180;52.742;11.420;2023-04-03T04:10:17;9.50;;;8.90;;
8584;SDS011;7180;52.742;11.420;2023-04-03T04:12:42;9.82;;;9.02;;
8584;SDS011;7180;52.742;11.420;2023-04-03T04:15:08;9.77;;;8.85;;
8584;SDS011;7180;52.742;11.420;2023-04-03T04:17:33;8.87;;;8.37;;
8584;SDS011;7180;52.742;11.420;2023-04-03T04:20:00;9.20;;;8.60;;
8584;SDS011;7180;52.742;11.420;2023-04-03T04:22:25;9.83;;;9.00;;
8584;SDS011;7180;52.742;11.420;2023-04-03T04:24:50;9.33;;;8.73;;
8584;SDS011;7180;52.742;11.420;2023-04-03T04:27:15;9.95;;;9.07;;
8584;SDS011;7180;52.742;11.420;2023-04-03T04:29:41;9.40;;;8.70;;
8584;SDS011;7180;52.742;11.420;2023-04-03T04:32:06;9.73;;;9.13;;
8584;SDS011;7180;52.742;11.420;2023-04-03T04:34:31;8.75;;;8.10;;
8584;SDS011;7180;52.742;11.420;2023-04-03T04:36:56;9.47;;;8.60;;
8584;SDS011;7180;52.742;11.420;2023-04-03T04:39:21;9.50;;;8.93;;
8584;SDS011;7180;52.742;11.420;2023-04-03T04:41:46;9.33;;;8.73;;
8584;SDS011;7180;52.742;11.420;2023-04-03T04:44:12;8.83;;;8.33;;
8584;SDS011;7180;52.742;11.420;2023-04-03T04:46:37;9.30;;;8.60;;
8584;SDS011;7180;52.742;11.420;2023-04-03T04:49:02;9.60;;;8.90;;
8584;SDS011;7180;52.742;11.420;2023-04-03T04:51:27;10.32;;;9.50;;
8584;SDS011;7180;52.742;11.420;2023-04-03T04:53:52;9.38;;;8.75;;
8584;SDS011;7180;52.742;11.420;2023-04-03T04:56:17;9.82;;;9.10;;
8584;SDS011;7180;52.742;11.420;2023-04-03T04:58:43;9.80;;;9.03;;
8584;SDS011;7180;52.742;11.420;2023-04-03T05:01:09;9.47;;;8.87;;
8584;SDS011;7180;52.742;11.420;2023-04-03T05:03:34;9.97;;;9.17;;
8584;SDS011;7180;52.742;11.420;2023-04-03T05:05:59;9.20;;;8.55;;
8584;SDS011;7180;52.742;11.420;2023-04-03T05:08:25;9.30;;;8.70;;
8584;SDS011;7180;52.742;11.420;2023-04-03T05:10:50;9.00;;;8.43;;
8584;SDS011;7180;52.742;11.420;2023-04-03T05:13:15;9.40;;;8.80;;
8584;SDS011;7180;52.742;11.420;2023-04-03T05:15:41;9.10;;;8.30;;
8584;SDS011;7180;52.742;11.420;2023-04-03T05:18:06;9.27;;;8.57;;
8584;SDS011;7180;52.742;11.420;2023-04-03T05:20:31;8.97;;;8.37;;
8584;SDS011;7180;52.742;11.420;2023-04-03T05:22:57;9.10;;;8.50;;
8584;SDS011;7180;52.742;11.420;2023-04-03T05:25:22;9.13;;;8.63;;
8584;SDS011;7180;52.742;11.420;2023-04-03T05:27:47;9.87;;;9.17;;
8584;SDS011;7180;52.742;11.420;2023-04-03T05:30:13;9.20;;;8.57;;
8584;SDS011;7180;52.742;11.420;2023-04-03T05:32:38;8.80;;;8.20;;
8584;SDS011;7180;52.742;11.420;2023-04-03T05:35:04;8.97;;;8.37;;
8584;SDS011;7180;52.742;11.420;2023-04-03T05:37:29;10.60;;;9.60;;
8584;SDS011;7180;52.742;11.420;2023-04-03T05:39:54;10.40;;;9.60;;
8584;SDS011;7180;52.742;11.420;2023-04-03T05:42:19;9.83;;;9.23;;
8584;SDS011;7180;52.742;11.420;2023-04-03T05:44:44;9.83;;;9.23;;
8584;SDS011;7180;52.742;11.420;2023-04-03T05:47:12;9.50;;;8.80;;
8584;SDS011;7180;52.742;11.420;2023-04-03T05:49:37;8.83;;;8.13;;
8584;SDS011;7180;52.742;11.420;2023-04-03T05:52:05;8.70;;;8.20;;
8584;SDS011;7180;52.742;11.420;2023-04-03T05:54:30;9.67;;;8.87;;
8584;SDS011;7180;52.742;11.420;2023-04-03T05:56:55;9.13;;;8.37;;
8584;SDS011;7180;52.742;11.420;2023-04-03T05:59:21;9.88;;;9.07;;
8584;SDS011;7180;52.742;11.420;2023-04-03T06:01:46;9.67;;;8.97;;
8584;SDS011;7180;52.742;11.420;2023-04-03T06:04:11;10.03;;;9.23;;
8584;SDS011;7180;52.742;11.420;2023-04-03T06:09:08;10.00;;;9.20;;
8584;SDS011;7180;52.742;11.420;2023-04-03T06:11:34;9.80;;;9.20;;
8584;SDS011;7180;52.742;11.420;2023-04-03T06:14:00;9.87;;;9.13;;
8584;SDS011;7180;52.742;11.420;2023-04-03T06:16:25;9.27;;;8.60;;
8584;SDS011;7180;52.742;11.420;2023-04-03T06:18:50;8.53;;;8.03;;
8584;SDS011;7180;52.742;11.420;2023-04-03T06:21:15;9.20;;;8.60;;
8584;SDS011;7180;52.742;11.420;2023-04-03T06:23:41;9.35;;;8.82;;
8584;SDS011;7180;52.742;11.420;2023-04-03T06:26:06;9.80;;;9.13;;
8584;SDS011;7180;52.742;11.420;2023-04-03T06:28:32;9.80;;;9.10;;
8584;SDS011;7180;52.742;11.420;2023-04-03T06:30:57;9.70;;;9.20;;
8584;SDS011;7180;52.742;11.420;2023-04-03T06:33:22;9.82;;;9.18;;
8584;SDS011;7180;52.742;11.420;2023-04-03T06:35:47;10.00;;;9.40;;
8584;SDS011;7180;52.742;11.420;2023-04-03T06:38:12;9.63;;;8.83;;
8584;SDS011;7180;52.742;11.420;2023-04-03T06:40:38;9.50;;;8.98;;
8584;SDS011;7180;52.742;11.420;2023-04-03T06:43:03;9.00;;;8.50;;
8584;SDS011;7180;52.742;11.420;2023-04-03T06:45:28;9.30;;;8.70;;
8584;SDS011;7180;52.742;11.420;2023-04-03T06:47:53;9.50;;;8.90;;
8584;SDS011;7180;52.742;11.420;2023-04-03T06:50:18;9.45;;;8.85;;
8584;SDS011;7180;52.742;11.420;2023-04-03T06:52:44;9.50;;;9.00;;
8584;SDS011;7180;52.742;11.420;2023-04-03T06:55:09;9.40;;;8.80;;
8584;SDS011;7180;52.742;11.420;2023-04-03T06:57:35;9.23;;;8.73;;
8584;SDS011;7180;52.742;11.420;2023-04-03T07:00:00;8.70;;;8.20;;
8584;SDS011;7180;52.742;11.420;2023-04-03T07:02:25;9.07;;;8.57;;
8584;SDS011;7180;52.742;11.420;2023-04-03T07:04:51;8.77;;;8.23;;
8584;SDS011;7180;52.742;11.420;2023-04-03T07:07:16;8.87;;;8.27;;
8584;SDS011;7180;52.742;11.420;2023-04-03T07:09:42;9.10;;;8.50;;
8584;SDS011;7180;52.742;11.420;2023-04-03T07:12:07;9.13;;;8.53;;
8584;SDS011;7180;52.742;11.420;2023-04-03T07:14:33;9.17;;;8.57;;
8584;SDS011;7180;52.742;11.420;2023-04-03T07:16:58;9.20;;;8.70;;
8584;SDS011;7180;52.742;11.420;2023-04-03T07:19:23;9.43;;;8.80;;
8584;SDS011;7180;52.742;11.420;2023-04-03T07:21:52;9.80;;;8.90;;
8584;SDS011;7180;52.742;11.420;2023-04-03T07:24:17;9.27;;;8.52;;
8584;SDS011;7180;52.742;11.420;2023-04-03T07:26:42;8.63;;;8.13;;
8584;SDS011;7180;52.742;11.420;2023-04-03T07:29:07;9.47;;;8.63;;
8584;SDS011;7180;52.742;11.420;2023-04-03T07:31:33;8.90;;;8.40;;
8584;SDS011;7180;52.742;11.420;2023-04-03T07:33:58;9.10;;;8.60;;
8584;SDS011;7180;52.742;11.420;2023-04-03T07:36:23;9.15;;;8.55;;
8584;SDS011;7180;52.742;11.420;2023-04-03T07:38:49;9.40;;;8.60;;
8584;SDS011;7180;52.742;11.420;2023-04-03T07:41:15;8.90;;;8.40;;
8584;SDS011;7180;52.742;11.420;2023-04-03T07:43:40;9.07;;;8.47;;
8584;SDS011;7180;52.742;11.420;2023-04-03T07:46:07;9.60;;;8.80;;
8584;SDS011;7180;52.742;11.420;2023-04-03T07:48:32;9.47;;;8.87;;
8584;SDS011;7180;52.742;11.420;2023-04-03T07:50:59;9.30;;;8.70;;
8584;SDS011;7180;52.742;11.420;2023-04-03T07:53:25;9.10;;;8.40;;
8584;SDS011;7180;52.742;11.420;2023-04-03T07:55:50;9.37;;;8.77;;
8584;SDS011;7180;52.742;11.420;2023-04-03T07:58:20;9.20;;;8.60;;
8584;SDS011;7180;52.742;11.420;2023-04-03T08:00:45;8.70;;;8.25;;
8584;SDS011;7180;52.742;11.420;2023-04-03T08:03:10;9.03;;;8.43;;
8584;SDS011;7180;52.742;11.420;2023-04-03T08:05:42;8.67;;;8.17;;
8584;SDS011;7180;52.742;11.420;2023-04-03T08:08:08;9.13;;;8.53;;
8584;SDS011;7180;52.742;11.420;2023-04-03T08:10:34;8.97;;;8.37;;
8584;SDS011;7180;52.742;11.420;2023-04-03T08:12:59;9.13;;;8.40;;
8584;SDS011;7180;52.742;11.420;2023-04-03T08:15:25;9.00;;;8.50;;
8584;SDS011;7180;52.742;11.420;2023-04-03T08:17:50;8.93;;;8.20;;
8584;SDS011;7180;52.742;11.420;2023-04-03T08:20:15;9.00;;;8.27;;
8584;SDS011;7180;52.742;11.420;2023-04-03T08:22:41;9.00;;;8.50;;
8584;SDS011;7180;52.742;11.420;2023-04-03T08:25:06;9.73;;;8.87;;
8584;SDS011;7180;52.742;11.420;2023-04-03T08:27:32;8.97;;;8.37;;
8584;SDS011;7180;52.742;11.420;2023-04-03T08:29:57;8.67;;;8.27;;
8584;SDS011;7180;52.742;11.420;2023-04-03T08:32:22;8.70;;;8.20;;
8584;SDS011;7180;52.742;11.420;2023-04-03T08:34:48;9.07;;;8.47;;
8584;SDS011;7180;52.742;11.420;2023-04-03T08:37:13;9.07;;;8.47;;
8584;SDS011;7180;52.742;11.420;2023-04-03T08:39:38;8.88;;;8.25;;
8584;SDS011;7180;52.742;11.420;2023-04-03T08:42:05;8.30;;;7.90;;
8584;SDS011;7180;52.742;11.420;2023-04-03T08:44:40;8.97;;;8.43;;
8584;SDS011;7180;52.742;11.420;2023-04-03T08:49:45;8.63;;;8.23;;
8584;SDS011;7180;52.742;11.420;2023-04-03T08:52:15;8.80;;;8.30;;
8584;SDS011;7180;52.742;11.420;2023-04-03T08:54:49;8.80;;;8.20;;
8584;SDS011;7180;52.742;11.420;2023-04-03T08:57:15;7.80;;;7.40;;
8584;SDS011;7180;52.742;11.420;2023-04-03T08:59:41;8.70;;;8.10;;
8584;SDS011;7180;52.742;11.420;2023-04-03T09:02:23;8.57;;;7.80;;
8584;SDS011;7180;52.742;11.420;2023-04-03T09:04:49;8.20;;;7.80;;
8584;SDS011;7180;52.742;11.420;2023-04-03T09:07:17;9.30;;;8.80;;
8584;SDS011;7180;52.742;11.420;2023-04-03T09:09:45;8.83;;;8.30;;
8584;SDS011;7180;52.742;11.420;2023-04-03T09:12:44;9.40;;;8.90;;
8584;SDS011;7180;52.742;11.420;2023-04-03T09:15:10;8.40;;;8.00;;
8584;SDS011;7180;52.742;11.420;2023-04-03T09:20:32;8.57;;;8.07;;
8584;SDS011;7180;52.742;11.420;2023-04-03T09:22:54;9.47;;;8.90;;
8584;SDS011;7180;52.742;11.420;2023-04-03T09:25:24;9.80;;;9.10;;
8584;SDS011;7180;52.742;11.420;2023-04-03T09:27:50;9.37;;;8.77;;
8584;SDS011;7180;52.742;11.420;2023-04-03T09:30:17;8.83;;;8.20;;
8584;SDS011;7180;52.742;11.420;2023-04-03T09:32:46;8.80;;;8.30;;
8584;SDS011;7180;52.742;11.420;2023-04-03T09:35:25;8.80;;;8.30;;
8584;SDS011;7180;52.742;11.420;2023-04-03T09:37:51;9.10;;;8.60;;
8584;SDS011;7180;52.742;11.420;2023-04-03T09:40:31;7.60;;;7.20;;
8584;SDS011;7180;52.742;11.420;2023-04-03T09:43:00;8.27;;;7.77;;
8584;SDS011;7180;52.742;11.420;2023-04-03T09:45:30;8.60;;;8.20;;
8584;SDS011;7180;52.742;11.420;2023-04-03T09:48:06;8.40;;;8.00;;
8584;SDS011;7180;52.742;11.420;2023-04-03T09:50:32;8.17;;;7.80;;
8584;SDS011;7180;52.742;11.420;2023-04-03T09:52:59;8.70;;;8.10;;
8584;SDS011;7180;52.742;11.420;2023-04-03T09:55:29;8.40;;;8.00;;
8584;SDS011;7180;52.742;11.420;2023-04-03T09:57:55;8.63;;;8.20;;
8584;SDS011;7180;52.742;11.420;2023-04-03T10:02:49;8.73;;;8.20;;
8584;SDS011;7180;52.742;11.420;2023-04-03T10:07:49;8.53;;;8.10;;
8584;SDS011;7180;52.742;11.420;2023-04-03T10:10:20;8.93;;;8.37;;
8584;SDS011;7180;52.742;11.420;2023-04-03T10:12:47;8.57;;;8.17;;
8584;SDS011;7180;52.742;11.420;2023-04-03T10:15:13;9.17;;;8.47;;
8584;SDS011;7180;52.742;11.420;2023-04-03T10:17:57;8.73;;;8.23;;
8584;SDS011;7180;52.742;11.420;2023-04-03T10:20:29;9.07;;;8.57;;
8584;SDS011;7180;52.742;11.420;2023-04-03T10:23:11;9.30;;;8.70;;
8584;SDS011;7180;52.742;11.420;2023-04-03T10:28:05;8.80;;;8.30;;
8584;SDS011;7180;52.742;11.420;2023-04-03T10:33:18;8.30;;;7.87;;
8584;SDS011;7180;52.742;11.420;2023-04-03T10:35:49;8.80;;;8.30;;
8584;SDS011;7180;52.742;11.420;2023-04-03T10:43:40;8.90;;;8.40;;
8584;SDS011;7180;52.742;11.420;2023-04-03T10:51:15;8.77;;;8.37;;
8584;SDS011;7180;52.742;11.420;2023-04-03T10:53:45;9.23;;;8.73;;
8584;SDS011;7180;52.742;11.420;2023-04-03T10:58:54;9.60;;;8.90;;
8584;SDS011;7180;52.742;11.420;2023-04-03T11:01:23;8.90;;;8.37;;
8584;SDS011;7180;52.742;11.420;2023-04-03T11:03:54;8.90;;;8.47;;
8584;SDS011;7180;52.742;11.420;2023-04-03T11:06:22;8.77;;;8.27;;
8584;SDS011;7180;52.742;11.420;2023-04-03T11:08:53;8.60;;;8.20;;
8584;SDS011;7180;52.742;11.420;2023-04-03T11:11:29;8.90;;;8.40;;
8584;SDS011;7180;52.742;11.420;2023-04-03T11:14:00;8.60;;;8.10;;
8584;SDS011;7180;52.742;11.420;2023-04-03T11:16:28;8.53;;;8.13;;
8584;SDS011;7180;52.742;11.420;2023-04-03T11:21:39;9.00;;;8.50;;
8584;SDS011;7180;52.742;11.420;2023-04-03T11:24:05;8.97;;;8.47;;
8584;SDS011;7180;52.742;11.420;2023-04-03T11:26:35;8.70;;;8.20;;
8584;SDS011;7180;52.742;11.420;2023-04-03T11:29:03;8.90;;;8.20;;
8584;SDS011;7180;52.742;11.420;2023-04-03T11:34:08;8.60;;;8.20;;
8584;SDS011;7180;52.742;11.420;2023-04-03T11:36:40;8.63;;;8.20;;
8584;SDS011;7180;52.742;11.420;2023-04-03T11:39:10;8.33;;;7.83;;
8584;SDS011;7180;52.742;11.420;2023-04-03T11:41:41;8.20;;;7.80;;
8584;SDS011;7180;52.742;11.420;2023-04-03T11:44:25;8.60;;;8.05;;
8584;SDS011;7180;52.742;11.420;2023-04-03T11:46:52;8.87;;;8.27;;
8584;SDS011;7180;52.742;11.420;2023-04-03T11:52:02;8.40;;;7.90;;
8584;SDS011;7180;52.742;11.420;2023-04-03T11:59:48;9.27;;;8.47;;
8584;SDS011;7180;52.742;11.420;2023-04-03T12:02:34;9.10;;;8.60;;
8584;SDS011;7180;52.742;11.420;2023-04-03T12:07:45;9.07;;;8.63;;
8584;SDS011;7180;52.742;11.420;2023-04-03T12:10:30;8.80;;;8.30;;
8584;SDS011;7180;52.742;11.420;2023-04-03T12:12:56;7.90;;;7.40;;
8584;SDS011;7180;52.742;11.420;2023-04-03T12:15:24;8.23;;;7.83;;
8584;SDS011;7180;52.742;11.420;2023-04-03T12:17:50;8.80;;;8.30;;
8584;SDS011;7180;52.742;11.420;2023-04-03T12:23:07;8.80;;;8.40;;
8584;SDS011;7180;52.742;11.420;2023-04-03T12:25:51;9.53;;;8.87;;
8584;SDS011;7180;52.742;11.420;2023-04-03T12:28:16;9.00;;;8.40;;
8584;SDS011;7180;52.742;11.420;2023-04-03T12:30:42;8.97;;;8.47;;
8584;SDS011;7180;52.742;11.420;2023-04-03T12:33:24;8.50;;;8.03;;
8584;SDS011;7180;52.742;11.420;2023-04-03T12:41:32;8.70;;;8.20;;
8584;SDS011;7180;52.742;11.420;2023-04-03T12:44:04;8.00;;;7.50;;
8584;SDS011;7180;52.742;11.420;2023-04-03T12:46:53;8.20;;;7.80;;
8584;SDS011;7180;52.742;11.420;2023-04-03T12:49:29;8.93;;;8.30;;
8584;SDS011;7180;52.742;11.420;2023-04-03T12:51:56;8.87;;;8.30;;
8584;SDS011;7180;52.742;11.420;2023-04-03T12:54:37;8.70;;;8.20;;
8584;SDS011;7180;52.742;11.420;2023-04-03T12:59:35;8.50;;;8.00;;
8584;SDS011;7180;52.742;11.420;2023-04-03T13:02:02;8.83;;;8.33;;
8584;SDS011;7180;52.742;11.420;2023-04-03T13:04:28;9.30;;;8.70;;
8584;SDS011;7180;52.742;11.420;2023-04-03T13:06:53;8.70;;;8.30;;
8584;SDS011;7180;52.742;11.420;2023-04-03T13:09:20;9.00;;;8.50;;
8584;SDS011;7180;52.742;11.420;2023-04-03T13:11:50;8.70;;;8.20;;
8584;SDS011;7180;52.742;11.420;2023-04-03T13:14:17;8.10;;;7.60;;
8584;SDS011;7180;52.742;11.420;2023-04-03T13:16:59;9.20;;;8.60;;
8584;SDS011;7180;52.742;11.420;2023-04-03T13:19:25;8.57;;;8.17;;
8584;SDS011;7180;52.742;11.420;2023-04-03T13:21:53;9.33;;;8.63;;
8584;SDS011;7180;52.742;11.420;2023-04-03T13:24:20;8.97;;;8.47;;
8584;SDS011;7180;52.742;11.420;2023-04-03T13:26:45;8.67;;;8.03;;
8584;SDS011;7180;52.742;11.420;2023-04-03T13:29:24;8.90;;;8.40;;
8584;SDS011;7180;52.742;11.420;2023-04-03T13:31:52;8.50;;;7.90;;
8584;SDS011;7180;52.742;11.420;2023-04-03T13:34:18;8.13;;;7.53;;
8584;SDS011;7180;52.742;11.420;2023-04-03T13:36:45;8.50;;;8.00;;
8584;SDS011;7180;52.742;11.420;2023-04-03T13:39:24;8.63;;;8.03;;
8584;SDS011;7180;52.742;11.420;2023-04-03T13:41:53;9.33;;;8.57;;
8584;SDS011;7180;52.742;11.420;2023-04-03T13:46:53;8.90;;;8.40;;
8584;SDS011;7180;52.742;11.420;2023-04-03T13:51:47;8.20;;;7.80;;
8584;SDS011;7180;52.742;11.420;2023-04-03T13:54:18;8.70;;;8.10;;
8584;SDS011;7180;52.742;11.420;2023-04-03T13:56:52;9.03;;;8.43;;
8584;SDS011;7180;52.742;11.420;2023-04-03T14:04:20;10.17;;;9.57;;
8584;SDS011;7180;52.742;11.420;2023-04-03T14:06:46;8.77;;;8.17;;
8584;SDS011;7180;52.742;11.420;2023-04-03T14:09:12;8.00;;;7.60;;
8584;SDS011;7180;52.742;11.420;2023-04-03T14:11:37;8.10;;;7.70;;
8584;SDS011;7180;52.742;11.420;2023-04-03T14:14:06;8.57;;;8.07;;
8584;SDS011;7180;52.742;11.420;2023-04-03T14:16:37;8.93;;;8.30;;
8584;SDS011;7180;52.742;11.420;2023-04-03T14:19:02;8.63;;;8.07;;
8584;SDS011;7180;52.742;11.420;2023-04-03T14:21:28;8.40;;;7.97;;
8584;SDS011;7180;52.742;11.420;2023-04-03T14:23:53;8.60;;;8.10;;
8584;SDS011;7180;52.742;11.420;2023-04-03T14:26:20;8.20;;;7.67;;
8584;SDS011;7180;52.742;11.420;2023-04-03T14:28:47;7.10;;;6.70;;
8584;SDS011;7180;52.742;11.420;2023-04-03T14:31:13;8.30;;;7.80;;
8584;SDS011;7180;52.742;11.420;2023-04-03T14:33:38;7.00;;;6.60;;
8584;SDS011;7180;52.742;11.420;2023-04-03T14:36:14;8.63;;;8.23;;
8584;SDS011;7180;52.742;11.420;2023-04-03T14:38:40;8.10;;;7.60;;
8584;SDS011;7180;52.742;11.420;2023-04-03T14:41:06;8.33;;;7.93;;
8584;SDS011;7180;52.742;11.420;2023-04-03T14:43:31;9.10;;;8.47;;
8584;SDS011;7180;52.742;11.420;2023-04-03T14:45:56;9.13;;;8.60;;
8584;SDS011;7180;52.742;11.420;2023-04-03T14:48:23;7.40;;;6.90;;
8584;SDS011;7180;52.742;11.420;2023-04-03T14:50:49;7.63;;;6.97;;
8584;SDS011;7180;52.742;11.420;2023-04-03T14:53:15;9.60;;;9.00;;
8584;SDS011;7180;52.742;11.420;2023-04-03T14:55:45;7.67;;;7.27;;
8584;SDS011;7180;52.742;11.420;2023-04-03T14:58:17;8.17;;;7.67;;
8584;SDS011;7180;52.742;11.420;2023-04-03T15:00:43;9.07;;;8.47;;
8584;SDS011;7180;52.742;11.420;2023-04-03T15:03:20;8.30;;;7.80;;
8584;SDS011;7180;52.742;11.420;2023-04-03T15:05:46;8.87;;;8.37;;
8584;SDS011;7180;52.742;11.420;2023-04-03T15:08:15;8.30;;;7.80;;
8584;SDS011;7180;52.742;11.420;2023-04-03T15:10:41;9.07;;;8.40;;
8584;SDS011;7180;52.742;11.420;2023-04-03T15:13:08;8.35;;;7.85;;
8584;SDS011;7180;52.742;11.420;2023-04-03T15:15:33;8.40;;;8.00;;
8584;SDS011;7180;52.742;11.420;2023-04-03T15:17:58;7.60;;;7.13;;
8584;SDS011;7180;52.742;11.420;2023-04-03T15:20:25;8.77;;;8.17;;
8584;SDS011;7180;52.742;11.420;2023-04-03T15:22:50;8.50;;;8.00;;
8584;SDS011;7180;52.742;11.420;2023-04-03T15:25:15;8.17;;;7.70;;
8584;SDS011;7180;52.742;11.420;2023-04-03T15:27:40;7.90;;;7.40;;
8584;SDS011;7180;52.742;11.420;2023-04-03T15:30:06;8.13;;;7.73;;
8584;SDS011;7180;52.742;11.420;2023-04-03T15:32:32;8.47;;;7.90;;
8584;SDS011;7180;52.742;11.420;2023-04-03T15:34:59;8.47;;;7.90;;
8584;SDS011;7180;52.742;11.420;2023-04-03T15:37:24;7.95;;;7.55;;
8584;SDS011;7180;52.742;11.420;2023-04-03T15:39:49;8.30;;;7.80;;
8584;SDS011;7180;52.742;11.420;2023-04-03T15:42:15;8.00;;;7.50;;
8584;SDS011;7180;52.742;11.420;2023-04-03T15:44:40;7.28;;;6.90;;
8584;SDS011;7180;52.742;11.420;2023-04-03T15:47:05;7.63;;;7.03;;
8584;SDS011;7180;52.742;11.420;2023-04-03T15:49:31;7.13;;;6.83;;
8584;SDS011;7180;52.742;11.420;2023-04-03T15:51:57;7.00;;;6.70;;
8584;SDS011;7180;52.742;11.420;2023-04-03T15:54:22;7.72;;;7.22;;
8584;SDS011;7180;52.742;11.420;2023-04-03T15:56:49;8.33;;;7.70;;
8584;SDS011;7180;52.742;11.420;2023-04-03T15:59:14;8.50;;;8.00;;
8584;SDS011;7180;52.742;11.420;2023-04-03T16:01:40;7.90;;;7.50;;
8584;SDS011;7180;52.742;11.420;2023-04-03T16:04:06;8.10;;;7.67;;
8584;SDS011;7180;52.742;11.420;2023-04-03T16:06:32;8.33;;;7.83;;
8584;SDS011;7180;52.742;11.420;2023-04-03T16:08:58;7.93;;;7.53;;
8584;SDS011;7180;52.742;11.420;2023-04-03T16:11:24;8.43;;;7.93;;
8584;SDS011;7180;52.742;11.420;2023-04-03T16:13:50;8.00;;;7.40;;
8584;SDS011;7180;52.742;11.420;2023-04-03T16:16:16;8.27;;;7.78;;
8584;SDS011;7180;52.742;11.420;2023-04-03T16:18:41;7.73;;;7.30;;